createdAt,value
2018-07-17T00:01:45.213Z,97489.27
2018-07-17T00:04:13.850Z,97492.19
2018-07-17T00:06:43.601Z,97486.73
2018-07-17T00:09:13.129Z,97489.89
2018-07-17T00:11:42.494Z,97492.27
2018-07-17T00:14:11.771Z,97492.34
2018-07-17T00:16:41.918Z,97491.55
2018-07-17T00:19:10.592Z,97496.94
2018-07-17T00:21:40.586Z,97499.53
2018-07-17T00:24:10.025Z,97499.95
2018-07-17T00:26:38.722Z,97506.20
2018-07-17T00:29:07.420Z,97509.23
2018-07-17T00:31:36.692Z,97509.89
2018-07-17T00:34:05.399Z,97510.38
2018-07-17T00:36:33.980Z,97512.11
2018-07-17T00:39:03.689Z,97510.55
2018-07-17T00:41:33.067Z,97512.92
2018-07-17T00:44:02.661Z,97509.09
2018-07-17T00:46:33.625Z,97511.69
2018-07-17T00:49:03.727Z,97510.32
2018-07-17T00:51:32.715Z,97510.10
2018-07-17T00:54:01.313Z,97504.06
2018-07-17T00:56:30.411Z,97508.08
2018-07-17T00:58:59.847Z,97504.20
2018-07-17T01:01:33.862Z,97497.95
2018-07-17T01:04:08.363Z,97501.78
2018-07-17T01:06:43.000Z,97499.84
2018-07-17T01:09:17.350Z,97500.19
2018-07-17T01:11:51.573Z,97494.86
2018-07-17T01:14:26.859Z,97494.20
2018-07-17T01:16:56.189Z,97497.23
2018-07-17T01:19:26.335Z,97494.76
2018-07-17T01:21:55.140Z,97496.34
2018-07-17T01:24:24.486Z,97369.63
2018-07-17T01:26:54.108Z,97498.81
2018-07-17T01:29:23.303Z,97495.34
2018-07-17T01:31:52.210Z,97501.59
2018-07-17T01:34:22.722Z,97498.87
2018-07-17T01:36:53.402Z,97498.41
2018-07-17T01:39:22.193Z,97493.50
2018-07-17T01:41:56.589Z,97498.30
2018-07-17T01:44:25.673Z,97496.70
2018-07-17T01:46:55.377Z,97487.60
2018-07-17T01:49:24.979Z,97488.97
2018-07-17T01:51:53.581Z,97484.53
2018-07-17T01:54:22.702Z,97490.55
2018-07-17T01:56:52.081Z,97497.28
2018-07-17T01:59:20.988Z,97493.29
2018-07-17T02:01:49.618Z,97497.28
2018-07-17T02:04:19.183Z,97494.49
2018-07-17T02:06:47.943Z,97499.98
2018-07-17T02:09:16.705Z,97497.19
2018-07-17T02:11:46.198Z,97497.94
2018-07-17T02:14:15.360Z,97503.92
2018-07-17T02:16:45.110Z,97504.64
2018-07-17T02:19:14.423Z,97496.53
2018-07-17T02:21:43.018Z,97493.81
2018-07-17T02:24:12.050Z,97498.14
2018-07-17T02:26:40.654Z,97494.84
2018-07-17T02:29:09.815Z,97498.00
2018-07-17T02:31:38.426Z,97497.60
2018-07-17T02:34:10.375Z,97500.05
2018-07-17T02:36:38.989Z,97503.91
2018-07-17T02:39:08.819Z,97508.34
2018-07-17T02:41:38.423Z,97503.91
2018-07-17T02:44:07.945Z,97507.09
2018-07-17T02:46:37.602Z,97510.27
2018-07-17T02:49:06.242Z,97504.48
2018-07-17T02:51:34.856Z,97505.97
2018-07-17T02:54:04.063Z,97510.52
2018-07-17T02:56:34.064Z,97517.67
2018-07-17T02:59:02.624Z,97513.96
2018-07-17T03:01:31.286Z,97513.53
2018-07-17T03:03:59.863Z,97516.36
2018-07-17T03:06:29.052Z,97512.05
2018-07-17T03:08:57.773Z,97512.48
2018-07-17T03:11:29.102Z,97512.41
2018-07-17T03:14:01.866Z,97519.91
2018-07-17T03:16:31.211Z,97520.94
2018-07-17T03:18:59.948Z,97520.83
2018-07-17T03:21:29.316Z,97525.70
2018-07-17T03:23:58.042Z,97528.47
2018-07-17T03:26:26.931Z,97529.60
2018-07-17T03:28:55.913Z,97530.28
2018-07-17T03:31:24.526Z,97531.98
2018-07-17T03:33:53.207Z,97531.76
2018-07-17T03:36:22.744Z,97531.53
2018-07-17T03:38:51.495Z,97532.33
2018-07-17T03:41:20.486Z,97539.13
2018-07-17T03:43:49.101Z,97545.02
2018-07-17T03:46:18.247Z,97546.39
2018-07-17T03:48:47.648Z,97542.00
2018-07-17T03:51:17.104Z,97543.59
2018-07-17T03:53:46.527Z,97546.73
2018-07-17T03:56:16.171Z,97542.23
2018-07-17T03:58:44.785Z,97545.59
2018-07-17T04:01:13.546Z,97544.01
2018-07-17T04:03:42.631Z,97553.20
2018-07-17T04:06:11.499Z,97561.62
2018-07-17T04:08:41.264Z,97563.31
2018-07-17T04:11:09.831Z,97566.95
2018-07-17T04:13:38.698Z,97564.00
2018-07-17T04:16:08.076Z,97566.84
2018-07-17T04:18:38.392Z,97565.70
2018-07-17T04:21:07.234Z,97566.38
2018-07-17T04:23:39.469Z,97570.36
2018-07-17T04:26:08.334Z,97571.23
2018-07-17T04:28:37.485Z,97574.45
2018-07-17T04:31:06.700Z,97569.68
2018-07-17T04:33:35.885Z,97570.13
2018-07-17T04:36:05.825Z,97571.00
2018-07-17T04:38:34.434Z,97571.69
2018-07-17T04:41:03.336Z,97569.95
2018-07-17T04:43:31.985Z,97580.95
2018-07-17T04:46:00.919Z,97572.90
2018-07-17T04:48:30.315Z,97578.56
2018-07-17T04:50:59.438Z,97576.38
2018-07-17T04:53:28.229Z,97579.36
2018-07-17T04:55:56.884Z,97581.14
2018-07-17T04:58:26.829Z,97588.43
2018-07-17T05:00:55.475Z,97582.98
2018-07-17T05:03:24.216Z,97587.06
2018-07-17T05:05:53.071Z,97594.64
2018-07-17T05:08:21.711Z,97594.30
2018-07-17T05:10:50.474Z,97591.36
2018-07-17T05:13:19.148Z,97597.82
2018-07-17T05:15:49.001Z,97599.20
2018-07-17T05:18:18.639Z,97597.39
2018-07-17T05:20:47.316Z,97599.73
2018-07-17T05:23:16.330Z,97591.20
2018-07-17T05:25:46.132Z,97595.13
2018-07-17T05:28:16.072Z,97596.72
2018-07-17T05:30:44.946Z,97600.13
2018-07-17T05:33:13.654Z,97604.27
2018-07-17T05:35:43.257Z,97599.13
2018-07-17T05:38:12.484Z,97599.58
2018-07-17T05:40:41.131Z,97591.67
2018-07-17T05:43:09.755Z,97598.46
2018-07-17T05:45:38.408Z,97595.11
2018-07-17T05:48:08.347Z,97604.44
2018-07-17T05:50:37.516Z,97605.27
2018-07-17T05:53:06.165Z,97607.30
2018-07-17T05:55:34.815Z,97610.45
2018-07-17T05:58:04.180Z,97606.08
2018-07-17T06:00:33.384Z,97597.28
2018-07-17T06:03:01.951Z,97604.86
2018-07-17T06:05:30.547Z,97602.77
2018-07-17T06:07:59.180Z,97601.55
2018-07-17T06:10:28.509Z,97613.50
2018-07-17T06:12:57.142Z,97603.83
2018-07-17T06:15:25.901Z,97585.14
2018-07-17T06:17:54.457Z,97602.97
2018-07-17T06:20:23.457Z,97606.86
2018-07-17T06:22:52.354Z,97615.23
2018-07-17T06:25:21.036Z,97613.13
2018-07-17T06:27:49.632Z,97615.80
2018-07-17T06:30:18.297Z,97607.33
2018-07-17T06:32:46.863Z,97612.22
2018-07-17T06:35:15.533Z,97602.28
2018-07-17T06:37:44.262Z,97598.64
2018-07-17T06:40:12.939Z,97602.53
2018-07-17T06:42:41.692Z,97607.91
2018-07-17T06:45:10.382Z,97606.62
2018-07-17T06:47:39.041Z,97606.66
2018-07-17T06:50:07.661Z,97600.93
2018-07-17T06:52:36.260Z,97601.92
2018-07-17T06:55:04.949Z,97597.47
2018-07-17T06:57:33.568Z,97602.25
2018-07-17T07:00:02.191Z,97599.08
2018-07-17T07:02:30.884Z,97604.77
2018-07-17T07:04:59.941Z,97601.95
2018-07-17T07:07:28.630Z,97601.25
2018-07-17T07:09:57.260Z,97600.83
2018-07-17T07:12:26.125Z,97599.47
2018-07-17T07:14:54.785Z,97592.63
2018-07-17T07:17:23.810Z,97595.05
2018-07-17T07:19:52.540Z,97594.98
2018-07-17T07:22:21.181Z,97593.14
2018-07-17T07:24:49.831Z,97596.39
2018-07-17T07:27:18.544Z,97587.35
2018-07-17T07:29:47.805Z,97592.80
2018-07-17T07:32:17.116Z,97593.14
2018-07-17T07:34:45.810Z,97591.33
2018-07-17T07:37:14.492Z,97586.07
2018-07-17T07:39:43.111Z,97585.52
2018-07-17T07:42:11.869Z,97591.23
2018-07-17T07:44:40.547Z,97587.52
2018-07-17T07:47:09.223Z,97591.77
2018-07-17T07:49:37.828Z,97591.84
2018-07-17T07:52:06.609Z,97590.16
2018-07-17T07:54:35.475Z,97594.06
2018-07-17T07:57:04.101Z,97595.70
2018-07-17T07:59:32.837Z,97597.55
2018-07-17T08:02:02.711Z,97597.63
2018-07-17T08:04:32.077Z,97603.76
2018-07-17T08:07:00.706Z,97598.53
2018-07-17T08:09:29.335Z,97599.98
2018-07-17T08:11:58.088Z,97600.19
2018-07-17T08:14:26.724Z,97596.91
2018-07-17T08:16:55.457Z,97596.75
2018-07-17T08:19:24.070Z,97594.81
2018-07-17T08:21:53.748Z,97597.63
2018-07-17T08:24:22.552Z,97600.61
2018-07-17T08:26:51.366Z,97595.89
2018-07-17T08:29:20.158Z,97600.02
2018-07-17T08:31:48.963Z,97598.45
2018-07-17T08:34:17.576Z,97599.84
2018-07-17T08:36:46.214Z,97599.05
2018-07-17T08:39:14.936Z,97603.58
2018-07-17T08:41:43.690Z,97602.61
2018-07-17T08:44:12.330Z,97601.63
2018-07-17T08:46:41.020Z,97603.57
2018-07-17T08:49:10.114Z,97597.28
2018-07-17T08:51:38.707Z,97591.22
2018-07-17T08:54:07.693Z,97595.14
2018-07-17T08:56:36.420Z,97593.73
2018-07-17T08:59:05.058Z,97600.04
2018-07-17T09:01:33.938Z,97597.45
2018-07-17T09:04:03.185Z,97595.84
2018-07-17T09:06:31.855Z,97601.97
2018-07-17T09:09:01.157Z,97603.34
2018-07-17T09:11:30.606Z,97602.33
2018-07-17T09:13:59.266Z,97598.61
2018-07-17T09:16:28.436Z,97599.73
2018-07-17T09:18:57.094Z,97599.89
2018-07-17T09:21:26.629Z,97594.22
2018-07-17T09:23:55.237Z,97599.82
2018-07-17T09:26:24.571Z,97598.81
2018-07-17T09:28:53.558Z,97602.75
2018-07-17T09:31:26.624Z,97602.16
2018-07-17T09:33:56.478Z,97597.95
2018-07-17T09:36:25.610Z,97598.34
2018-07-17T09:38:54.276Z,97601.30
2018-07-17T09:41:23.035Z,97604.65
2018-07-17T09:43:51.754Z,97598.30
2018-07-17T09:46:20.756Z,97597.88
2018-07-17T09:48:49.580Z,97599.29
2018-07-17T09:51:18.241Z,97602.30
2018-07-17T09:53:46.841Z,97599.06
2018-07-17T09:56:15.453Z,97596.98
2018-07-17T09:58:44.222Z,97594.14
2018-07-17T10:01:18.331Z,97592.75
2018-07-17T10:03:46.992Z,97588.19
2018-07-17T10:06:15.990Z,97593.98
2018-07-17T10:08:45.394Z,97593.30
2018-07-17T10:11:14.060Z,97598.84
2018-07-17T10:13:42.718Z,97598.83
2018-07-17T10:16:11.526Z,97589.81
2018-07-17T10:18:40.103Z,97587.63
2018-07-17T10:21:09.242Z,97593.73
2018-07-17T10:23:37.913Z,97592.84
2018-07-17T10:26:06.905Z,97604.77
2018-07-17T10:28:35.594Z,97600.56
2018-07-17T10:31:04.353Z,97604.78
2018-07-17T10:33:33.865Z,97599.70
2018-07-17T10:36:02.513Z,97592.52
2018-07-17T10:38:31.221Z,97594.33
2018-07-17T10:41:00.001Z,97602.33
2018-07-17T10:43:28.723Z,97610.72
2018-07-17T10:45:57.447Z,97621.42
2018-07-17T10:48:26.196Z,97646.45
2018-07-17T10:50:54.892Z,97644.44
2018-07-17T10:53:24.224Z,97632.22
2018-07-17T10:55:52.950Z,97633.29
2018-07-17T10:58:22.271Z,97634.83
2018-07-17T11:00:50.942Z,97621.82
2018-07-17T11:03:19.622Z,97618.76
2018-07-17T11:05:48.226Z,97622.41
2018-07-17T11:08:17.019Z,97599.38
2018-07-17T11:10:45.731Z,97610.58
2018-07-17T11:13:14.414Z,97605.37
2018-07-17T11:15:43.214Z,97603.00
2018-07-17T11:18:11.866Z,97594.94
2018-07-17T11:20:40.523Z,97597.60
2018-07-17T11:23:09.127Z,97593.80
2018-07-17T11:25:38.833Z,97589.06
2018-07-17T11:28:07.503Z,97581.44
2018-07-17T11:30:37.058Z,97586.11
2018-07-17T11:33:06.402Z,97589.45
2018-07-17T11:35:35.071Z,97582.63
2018-07-17T11:38:03.704Z,97590.16
2018-07-17T11:40:32.398Z,97578.00
2018-07-17T11:43:01.065Z,97573.67
2018-07-17T11:45:29.762Z,97574.64
2018-07-17T11:47:58.597Z,97574.64
2018-07-17T11:50:27.281Z,97566.36
2018-07-17T11:52:56.367Z,97567.11
2018-07-17T11:55:25.053Z,97564.31
2018-07-17T11:57:53.812Z,97570.23
2018-07-17T12:00:22.436Z,97569.05
2018-07-17T12:02:51.753Z,97569.45
2018-07-17T12:05:21.397Z,97560.78
2018-07-17T12:07:50.103Z,97562.95
2018-07-17T12:10:18.824Z,97565.97
2018-07-17T12:12:47.614Z,97574.60
2018-07-17T12:15:16.138Z,97578.30
2018-07-17T12:17:45.920Z,97576.38
2018-07-17T12:20:14.843Z,97573.98
2018-07-17T12:22:44.105Z,97570.44
2018-07-17T12:25:12.913Z,97566.42
2018-07-17T12:27:41.555Z,97566.89
2018-07-17T12:30:10.539Z,97566.23
2018-07-17T12:32:39.116Z,97559.58
2018-07-17T12:35:08.435Z,97560.22
2018-07-17T12:37:37.099Z,97558.78
2018-07-17T12:40:06.672Z,97565.08
2018-07-17T12:42:35.373Z,97558.67
2018-07-17T12:45:04.156Z,97571.41
2018-07-17T12:47:32.950Z,97563.70
2018-07-17T12:50:01.763Z,97564.77
2018-07-17T12:52:31.086Z,97577.02
2018-07-17T12:54:59.765Z,97574.98
2018-07-17T12:57:28.425Z,97573.52
2018-07-17T12:59:57.040Z,97575.91
2018-07-17T13:02:25.886Z,97570.67
2018-07-17T13:04:54.661Z,97569.89
2018-07-17T13:07:23.355Z,97570.87
2018-07-17T13:09:52.070Z,97570.30
2018-07-17T13:12:20.717Z,97575.37
2018-07-17T13:14:49.534Z,97576.80
2018-07-17T13:17:18.182Z,97569.97
2018-07-17T13:19:46.791Z,97576.22
2018-07-17T13:22:15.429Z,97569.60
2018-07-17T13:24:44.154Z,97563.86
2018-07-17T13:27:12.891Z,97565.88
2018-07-17T13:29:41.598Z,97554.13
2018-07-17T13:32:10.244Z,97558.16
2018-07-17T13:34:39.328Z,97558.51
2018-07-17T13:37:07.983Z,97565.10
2018-07-17T13:39:36.700Z,97564.65
2018-07-17T13:42:06.183Z,97576.85
2018-07-17T13:44:35.020Z,97579.66
2018-07-17T13:47:03.711Z,97573.93
2018-07-17T13:49:32.406Z,97573.31
2018-07-17T13:52:01.057Z,97564.66
2018-07-17T13:54:29.746Z,97565.81
2018-07-17T13:56:58.345Z,97566.05
2018-07-17T13:59:26.984Z,97558.14
2018-07-17T14:01:55.792Z,97559.12
2018-07-17T14:04:24.411Z,97581.64
2018-07-17T14:06:53.250Z,97621.02
2018-07-17T14:09:22.546Z,97620.89
2018-07-17T14:11:51.806Z,97626.89
2018-07-17T14:14:20.447Z,97617.28
2018-07-17T14:16:50.453Z,97613.02
2018-07-17T14:19:19.736Z,97635.88
2018-07-17T14:21:48.380Z,97654.58
2018-07-17T14:24:17.567Z,97641.94
2018-07-17T14:26:47.238Z,97640.37
2018-07-17T14:29:16.169Z,97637.91
2018-07-17T14:31:44.846Z,97645.69
2018-07-17T14:34:13.507Z,97643.58
2018-07-17T14:36:42.338Z,97646.42
2018-07-17T14:39:13.032Z,97652.89
2018-07-17T14:41:42.372Z,97651.85
2018-07-17T14:44:11.573Z,97647.59
2018-07-17T14:46:40.871Z,97651.41
2018-07-17T14:49:10.982Z,97658.70
2018-07-17T14:51:39.680Z,97659.70
2018-07-17T14:54:08.505Z,97654.78
2018-07-17T14:56:37.278Z,97657.34
2018-07-17T14:59:06.244Z,97662.88
2018-07-17T15:01:34.828Z,97664.69
2018-07-17T15:04:03.476Z,97671.23
2018-07-17T15:06:32.265Z,97667.98
2018-07-17T15:09:00.915Z,97664.97
2018-07-17T15:11:31.158Z,97660.54
2018-07-17T15:13:59.784Z,97662.59
2018-07-17T15:16:28.365Z,97659.05
2018-07-17T15:18:57.140Z,97659.34
2018-07-17T15:21:25.801Z,97658.95
2018-07-17T15:23:54.546Z,97655.84
2018-07-17T15:26:23.188Z,97656.96
2018-07-17T15:28:51.753Z,97650.64
2018-07-17T15:31:21.117Z,97649.53
2018-07-17T15:33:49.783Z,97643.05
2018-07-17T15:36:18.548Z,97638.41
2018-07-17T15:38:47.177Z,97642.09
2018-07-17T15:41:15.885Z,97641.72
2018-07-17T15:43:44.536Z,97639.57
2018-07-17T15:46:13.373Z,97640.58
2018-07-17T15:48:43.219Z,97639.41
2018-07-17T15:51:12.154Z,97634.12
2018-07-17T15:53:40.898Z,97637.13
2018-07-17T15:56:09.803Z,97640.95
2018-07-17T15:58:38.565Z,97643.05
2018-07-17T16:01:07.349Z,97639.04
2018-07-17T16:03:36.147Z,97635.47
2018-07-17T16:06:04.990Z,97631.03
2018-07-17T16:08:33.661Z,97625.80
2018-07-17T16:11:03.312Z,97620.85
2018-07-17T16:13:32.081Z,97620.05
2018-07-17T16:16:01.908Z,97613.16
2018-07-17T16:18:30.804Z,97617.09
2018-07-17T16:21:00.156Z,97611.43
2018-07-17T16:23:30.393Z,97613.82
2018-07-17T16:25:59.161Z,97604.35
2018-07-17T16:28:27.920Z,97611.72
2018-07-17T16:30:57.169Z,97607.28
2018-07-17T16:33:25.883Z,97604.34
2018-07-17T16:35:54.586Z,97609.86
2018-07-17T16:38:23.438Z,97603.00
2018-07-17T16:40:52.044Z,97604.20
2018-07-17T16:43:21.365Z,97609.91
2018-07-17T16:45:50.131Z,97606.56
2018-07-17T16:48:19.246Z,97610.70
2018-07-17T16:50:47.960Z,97604.00
2018-07-17T16:53:17.397Z,97608.11
2018-07-17T16:55:46.192Z,97610.26
2018-07-17T16:58:16.796Z,97609.11
2018-07-17T17:00:46.332Z,97611.06
2018-07-17T17:03:15.067Z,97608.09
2018-07-17T17:05:45.424Z,97608.88
2018-07-17T17:08:14.150Z,97601.39
2018-07-17T17:10:42.874Z,97615.95
2018-07-17T17:13:11.592Z,97613.00
2018-07-17T17:15:40.239Z,97616.92
2018-07-17T17:18:08.992Z,97614.17
2018-07-17T17:20:38.060Z,97613.59
2018-07-17T17:23:06.970Z,97616.45
2018-07-17T17:25:42.759Z,97618.61
2018-07-17T17:28:12.253Z,97624.30
2018-07-17T17:30:40.966Z,97621.88
2018-07-17T17:33:09.785Z,97626.44
2018-07-17T17:35:38.431Z,97630.00
2018-07-17T17:38:07.736Z,97627.61
2018-07-17T17:40:36.520Z,97626.19
2018-07-17T17:43:05.714Z,97632.15
2018-07-17T17:45:36.012Z,97632.16
2018-07-17T17:48:05.849Z,97637.66
2018-07-17T17:50:34.556Z,97636.08
2018-07-17T17:53:03.294Z,97635.30
2018-07-17T17:55:32.930Z,97637.29
2018-07-17T17:58:03.346Z,97636.28
2018-07-17T18:00:32.205Z,97639.61
2018-07-17T18:03:02.158Z,97635.28
2018-07-17T18:05:30.861Z,97644.90
2018-07-17T18:08:00.218Z,97647.41
2018-07-17T18:10:30.400Z,97650.48
2018-07-17T18:12:59.860Z,97656.45
2018-07-17T18:15:28.662Z,97659.23
2018-07-17T18:17:57.523Z,97659.42
2018-07-17T18:20:28.399Z,97666.27
2018-07-17T18:22:57.392Z,97670.86
2018-07-17T18:25:26.752Z,97679.88
2018-07-17T18:27:55.636Z,97682.92
2018-07-17T18:30:25.386Z,97689.88
2018-07-17T18:32:54.051Z,97688.62
2018-07-17T18:35:22.757Z,97701.07
2018-07-17T18:37:51.515Z,97699.70
2018-07-17T18:40:21.037Z,97705.33
2018-07-17T18:42:50.193Z,97700.91
2018-07-17T18:45:19.314Z,97707.73
2018-07-17T18:47:48.120Z,97708.55
2018-07-17T18:50:17.791Z,97712.21
2018-07-17T18:52:46.482Z,97723.30
2018-07-17T18:55:15.369Z,97721.19
2018-07-17T18:57:45.519Z,97723.11
2018-07-17T19:00:14.237Z,97731.88
2018-07-17T19:02:44.063Z,97730.96
2018-07-17T19:05:13.183Z,97737.08
2018-07-17T19:07:41.908Z,97736.81
2018-07-17T19:10:10.659Z,97735.11
2018-07-17T19:12:39.450Z,97732.48
2018-07-17T19:15:08.180Z,97739.67
2018-07-17T19:17:37.410Z,97738.55
2018-07-17T19:20:06.174Z,97734.27
2018-07-17T19:22:35.190Z,97735.36
2018-07-17T19:25:03.899Z,97740.78
2018-07-17T19:27:32.692Z,97738.31
2018-07-17T19:30:01.416Z,97740.69
2018-07-17T19:32:30.076Z,97740.83
2018-07-17T19:34:59.058Z,97738.45
2018-07-17T19:37:28.039Z,97741.45
2018-07-17T19:39:57.381Z,97738.89
2018-07-17T19:42:26.017Z,97740.30
2018-07-17T19:44:54.925Z,97742.22
2018-07-17T19:47:24.072Z,97738.47
2018-07-17T19:49:52.717Z,97734.25
2018-07-17T19:52:21.412Z,97735.52
2018-07-17T19:54:50.075Z,97741.64
2018-07-17T19:57:18.950Z,97731.88
2018-07-17T19:59:48.349Z,97742.04
2018-07-17T20:02:17.010Z,97744.05
2018-07-17T20:04:45.699Z,97738.52
2018-07-17T20:07:14.366Z,97737.68
2018-07-17T20:09:43.154Z,97734.12
2018-07-17T20:12:12.356Z,97736.50
2018-07-17T20:14:42.141Z,97733.40
2018-07-17T20:17:12.256Z,97734.06
2018-07-17T20:19:41.763Z,97741.43
2018-07-17T20:22:10.711Z,97744.59
2018-07-17T20:24:44.386Z,97743.59
2018-07-17T20:27:13.644Z,97742.70
2018-07-17T20:29:43.093Z,97751.14
2018-07-17T20:32:12.656Z,97750.57
2018-07-17T20:34:41.351Z,97754.17
2018-07-17T20:37:10.880Z,97755.09
2018-07-17T20:39:40.596Z,97749.56
2018-07-17T20:42:09.628Z,97746.52
2018-07-17T20:44:40.089Z,97759.65
2018-07-17T20:47:14.443Z,97754.96
2018-07-17T20:49:47.407Z,97761.41
2018-07-17T20:52:17.780Z,97766.80
2018-07-17T20:54:47.142Z,97759.41
2018-07-17T20:57:16.916Z,97766.11
2018-07-17T20:59:46.657Z,97767.80
2018-07-17T21:02:16.839Z,97778.39
2018-07-17T21:04:46.950Z,97779.19
2018-07-17T21:07:18.163Z,97779.69
2018-07-17T21:09:53.694Z,97784.95
2018-07-17T21:12:24.169Z,97788.27
2018-07-17T21:14:54.224Z,97788.80
2018-07-17T21:17:24.364Z,97789.42
2018-07-17T21:19:54.889Z,97796.44
2018-07-17T21:22:24.357Z,97793.81
2018-07-17T21:24:53.935Z,97790.77
2018-07-17T21:27:23.984Z,97795.73
2018-07-17T21:29:54.777Z,97804.38
2018-07-17T21:32:24.394Z,97796.50
2018-07-17T21:34:53.261Z,97797.08
2018-07-17T21:37:23.303Z,97794.70
2018-07-17T21:39:52.902Z,97803.61
2018-07-17T21:42:21.823Z,97825.50
2018-07-17T21:44:51.314Z,97822.77
2018-07-17T21:47:20.803Z,97837.39
2018-07-17T21:49:50.688Z,97836.56
2018-07-17T21:52:19.333Z,97832.11
2018-07-17T21:54:48.239Z,97838.62
2018-07-17T21:57:17.676Z,97837.00
2018-07-17T21:59:48.237Z,97835.52
2018-07-17T22:02:17.587Z,97829.19
2018-07-17T22:04:46.336Z,97832.72
2018-07-17T22:07:16.306Z,97826.20
2018-07-17T22:09:45.563Z,97822.92
2018-07-17T22:12:16.212Z,97818.45
2018-07-17T22:14:46.530Z,97815.30
2018-07-17T22:17:15.449Z,97813.94
2018-07-17T22:19:45.060Z,97808.54
2018-07-17T22:22:14.712Z,97807.98
2018-07-17T22:24:43.581Z,97806.14
2018-07-17T22:27:12.937Z,97808.70
2018-07-17T22:29:42.427Z,97801.60
2018-07-17T22:32:11.738Z,97789.66
2018-07-17T22:34:40.533Z,97785.98
2018-07-17T22:37:10.646Z,97792.59
2018-07-17T22:39:40.654Z,97790.23
2018-07-17T22:42:10.085Z,97787.70
2018-07-17T22:44:39.578Z,97788.75
2018-07-17T22:47:08.288Z,97792.66
2018-07-17T22:49:37.675Z,97789.06
2018-07-17T22:52:07.120Z,97793.66
2018-07-17T22:54:37.156Z,97801.73
2018-07-17T22:57:06.009Z,97807.55
2018-07-17T22:59:35.748Z,97816.20
2018-07-17T23:02:05.138Z,97816.67
2018-07-17T23:04:34.306Z,97817.42
2018-07-17T23:07:02.937Z,97808.41
2018-07-17T23:09:32.271Z,97810.37
2018-07-17T23:12:01.695Z,97814.58
2018-07-17T23:14:31.670Z,97811.34
2018-07-17T23:17:01.766Z,97812.84
2018-07-17T23:19:31.230Z,97815.31
2018-07-17T23:22:00.094Z,97818.55
2018-07-17T23:24:29.296Z,97818.75
2018-07-17T23:26:58.040Z,97825.48
2018-07-17T23:29:26.968Z,97827.66
2018-07-17T23:31:56.259Z,97823.28
2018-07-17T23:34:25.332Z,97823.52
2018-07-17T23:36:54.641Z,97819.00
2018-07-17T23:39:23.338Z,97820.83
2018-07-17T23:41:51.989Z,97820.08
2018-07-17T23:44:21.266Z,97828.89
2018-07-17T23:46:51.299Z,97826.51
2018-07-17T23:49:24.968Z,97830.03
2018-07-17T23:51:55.190Z,97836.70
2018-07-17T23:54:23.895Z,97828.89
2018-07-17T23:56:52.697Z,97830.97
2018-07-17T23:59:21.614Z,97832.56
